Aberdeen, Washington
Current Conditions -  °F | °C
As of 3:40 PM on Monday 20 Oct 2014 (Local Time) from KHQM Reporting Station
Broken Clouds Broken Clouds  
Wind Chill: 61°   Ceiling: 2700
Heat Index: 61°   Visibility: 7mi
Dew Point: 54°   Wind: 15mph
Humidity: 78%   Direction: 150°SSE
Pressure: 29.75"   Gusts: NA
Location:  46.98°N, 123.81°W
Report Text: KHQM 202240Z AUTO 15013KT 7SM BKN027 BKN039 BKN070 16/12 A2975 RMK AO2 T01610122
Loading
Personal Weather Stations






























Interactive Weather Map
Tropical Storm Tracking
New forecast layout! Learn more

10-Day Weather Forecast

Advertisements
Track Severe Weather on mobile